Time;durP1;ratioP1;P1;durP2;ratioP2;P2;SDS_P1;SDS_P2;PMS_P1;PMS_P2;Temp;Humidity;BMP_temperature;BMP_pressure;BME280_temperature;BME280_humidity;BME280_pressure;Samples;Min_cycle;Max_cycle;Signal;HPM_P1;HPM_P2
2022/11/04 00:02:23;;;;;;;;;;;;;;;7.49;77.51;101385.77;1847124;76;20194;-49
2022/11/04 00:04:51;;;;;;;;;;;;;;;7.47;77.25;101383.59;1843205;77;20171;-59
2022/11/04 00:10:06;;;;;;;;;;;;;;;7.33;77.43;101376.82;1817733;79;20133;-55
2022/11/04 00:12:34;;;;;;;;;;;;;;;7.28;77.56;101369.92;1819962;79;20121;-52
2022/11/04 00:17:18;;;;;;;;;;;;;;;7.19;78.00;101359.13;1829852;76;20534;-52
2022/11/04 00:17:31;;;;;;;;;;;;;;;7.14;78.27;101358.36;1867801;77;20121;-54
2022/11/04 00:33:52;;;;;;;;;;;;;;;6.82;79.54;101350.50;1849547;78;20197;-52
2022/11/04 00:36:21;;;;;;;;;;;;;;;6.77;79.66;101353.64;1849473;78;20116;-54
2022/11/04 00:38:48;;;;;;;;;;;;;;;6.76;79.52;101349.28;1851151;77;20131;-52
2022/11/04 00:41:25;;;;;;;;;;;;;;;6.72;79.54;101356.31;1851702;77;20120;-53
2022/11/04 00:43:53;;;;;;;;;;;;;;;6.69;79.57;101355.48;1849917;77;20123;-57
2022/11/04 00:46:21;;;;;;;;;;;;;;;6.62;79.79;101353.83;1855890;77;20138;-56
2022/11/04 00:48:49;;;;;;;;;;;;;;;6.61;79.46;101357.34;1855901;77;20107;-57
2022/11/04 00:51:18;;;;;;;;;;;;;;;6.61;79.32;101346.88;1853695;77;20123;-59
2022/11/04 00:53:46;;;;;;;;;;;;;;;6.62;79.29;101348.59;1849494;78;20382;-57
2022/11/04 00:56:14;;;;;;;;;;;;;;;6.62;79.50;101344.67;1846350;77;20467;-57
2022/11/04 00:58:42;;;;;;;;;;;;;;;6.61;80.04;101342.95;1844827;77;20120;-50
2022/11/04 01:01:11;;;;;;;;;;;;;;;6.59;80.29;101346.03;1845960;78;20123;-54
2022/11/04 01:03:39;;;;;;;;;;;;;;;6.59;80.01;101350.81;1845955;78;20194;-51
2022/11/04 01:06:07;;;;;;;;;;;;;;;6.53;80.22;101350.91;1845986;78;20111;-54
2022/11/04 01:08:34;;;;;;;;;;;;;;;6.47;80.22;101348.34;1845929;78;20154;-57
2022/11/04 01:11:03;;;;;;;;;;;;;;;6.38;80.50;101355.85;1845986;78;20123;-52
2022/11/04 01:13:32;;;;;;;;;;;;;;;6.33;80.78;101357.69;1841877;76;20443;-56
2022/11/04 01:16:00;;;;;;;;;;;;;;;6.31;81.05;101354.22;1815429;79;20105;-54
2022/11/04 01:18:28;;;;;;;;;;;;;;;6.30;80.85;101348.55;1815528;79;20161;-54
2022/11/04 01:20:57;;;;;;;;;;;;;;;6.31;80.61;101349.84;1815372;79;20152;-56
2022/11/04 01:23:25;;;;;;;;;;;;;;;6.27;81.11;101352.08;1848457;77;20123;-56
2022/11/04 01:25:53;;;;;;;;;;;;;;;6.26;81.28;101352.09;1848623;76;20150;-52
2022/11/04 01:28:21;;;;;;;;;;;;;;;6.30;81.27;101352.47;1845977;78;20162;-53
2022/11/04 01:30:48;;;;;;;;;;;;;;;6.36;80.99;101353.28;1845898;78;20115;-55
2022/11/04 01:33:16;;;;;;;;;;;;;;;6.45;80.67;101364.05;1881970;76;20121;-48
2022/11/04 01:35:45;;;;;;;;;;;;;;;6.52;80.42;101370.95;1862101;76;20162;-54
2022/11/04 01:38:13;;;;;;;;;;;;;;;6.55;80.20;101368.30;1868540;77;20156;-55
2022/11/04 01:40:41;;;;;;;;;;;;;;;6.55;80.18;101369.61;1867616;77;20166;-57
2022/11/04 01:43:16;;;;;;;;;;;;;;;6.57;80.05;101365.23;1845987;78;20111;-56
2022/11/04 01:45:45;;;;;;;;;;;;;;;6.60;80.34;101369.54;1846038;78;20123;-53
2022/11/04 01:48:16;;;;;;;;;;;;;;;6.65;80.21;101366.88;1845190;78;20120;-51
2022/11/04 01:50:44;;;;;;;;;;;;;;;6.65;80.23;101356.41;1845952;78;20389;-50
2022/11/04 01:53:13;;;;;;;;;;;;;;;6.63;80.14;101351.20;1845963;78;20174;-54
2022/11/04 01:55:42;;;;;;;;;;;;;;;6.60;80.31;101355.59;1846020;78;20166;-51
2022/11/04 01:58:12;;;;;;;;;;;;;;;6.58;80.24;101359.54;1847092;76;20202;-51
2022/11/04 02:00:40;;;;;;;;;;;;;;;6.61;80.07;101354.73;1856324;77;20119;-58
2022/11/04 02:03:12;;;;;;;;;;;;;;;6.65;79.91;101356.41;1857565;77;20161;-57
2022/11/04 02:05:41;;;;;;;;;;;;;;;6.70;79.71;101357.23;1856497;77;20119;-58
2022/11/04 02:08:10;;;;;;;;;;;;;;;6.74;79.53;101358.91;1857571;77;20123;-55
2022/11/04 02:10:39;;;;;;;;;;;;;;;6.76;79.40;101358.45;1857510;77;20532;-52
2022/11/04 02:13:07;;;;;;;;;;;;;;;6.77;79.30;101354.95;1878767;76;20113;-54
2022/11/04 02:15:36;;;;;;;;;;;;;;;6.71;79.50;101349.78;1858523;76;20193;-50
2022/11/04 02:18:22;;;;;;;;;;;;;;;6.67;79.68;101355.95;1872746;75;20116;-58
2022/11/04 02:20:58;;;;;;;;;;;;;;;6.66;79.80;101351.17;1905287;75;20124;-57
2022/11/04 02:23:39;;;;;;;;;;;;;;;6.65;80.21;101343.33;1862632;77;20235;-58
2022/11/04 02:26:08;;;;;;;;;;;;;;;6.62;80.21;101348.59;1857551;77;20119;-58
2022/11/04 02:28:43;;;;;;;;;;;;;;;6.57;80.12;101349.52;1860813;77;20111;-56
2022/11/04 02:31:16;;;;;;;;;;;;;;;6.55;80.00;101345.20;1858165;77;20166;-57
2022/11/04 02:33:45;;;;;;;;;;;;;;;6.47;79.98;101337.42;1856545;77;20149;-56
2022/11/04 02:36:31;;;;;;;;;;;;;;;6.42;79.82;101352.34;1858593;77;20126;-55
2022/11/04 02:39:09;;;;;;;;;;;;;;;6.37;79.61;101353.69;1866557;77;20146;-58
2022/11/04 02:41:42;;;;;;;;;;;;;;;6.33;79.50;101353.31;1864722;77;20150;-57
2022/11/04 02:44:14;;;;;;;;;;;;;;;6.30;79.42;101349.86;1866023;76;20118;-57
2022/11/04 02:46:58;;;;;;;;;;;;;;;6.27;79.32;101350.77;1857613;77;20200;-55
2022/11/04 02:49:35;;;;;;;;;;;;;;;6.25;79.29;101350.34;1857544;77;20118;-54
2022/11/04 02:52:04;;;;;;;;;;;;;;;6.21;79.20;101345.59;1857586;77;20149;-55
2022/11/04 02:54:37;;;;;;;;;;;;;;;6.19;79.11;101347.36;1864147;76;20137;-56
2022/11/04 02:57:07;;;;;;;;;;;;;;;6.13;79.36;101350.91;1889438;76;20203;-53
2022/11/04 02:59:36;;;;;;;;;;;;;;;6.10;79.55;101350.08;1868094;76;20123;-54
2022/11/04 03:02:05;;;;;;;;;;;;;;;6.06;79.92;101349.23;1864515;77;20127;-56
2022/11/04 03:04:35;;;;;;;;;;;;;;;6.03;80.17;101352.33;1827205;77;20113;-51
2022/11/04 03:07:04;;;;;;;;;;;;;;;5.95;80.36;101341.50;1823464;79;20113;-51
2022/11/04 03:09:33;;;;;;;;;;;;;;;5.89;80.50;101341.55;1824369;79;20611;-54
2022/11/04 03:12:02;;;;;;;;;;;;;;;5.80;80.65;101335.10;1824424;79;20130;-55
2022/11/04 03:14:34;;;;;;;;;;;;;;;5.78;80.70;101334.25;1824527;79;20111;-57
2022/11/04 03:17:04;;;;;;;;;;;;;;;5.79;80.54;101342.50;1837313;77;20160;-54
2022/11/04 03:19:50;;;;;;;;;;;;;;;5.79;80.34;101339.47;1827347;77;20113;-51
2022/11/04 03:22:19;;;;;;;;;;;;;;;5.78;80.40;101339.03;1838423;77;20157;-56
2022/11/04 03:24:48;;;;;;;;;;;;;;;5.78;80.30;101346.88;1861221;77;20122;-55
2022/11/04 03:27:20;;;;;;;;;;;;;;;5.76;80.08;101343.86;1864155;77;20119;-58
2022/11/04 03:29:49;;;;;;;;;;;;;;;5.71;80.22;101343.89;1824305;77;20122;-54
2022/11/04 03:32:19;;;;;;;;;;;;;;;5.64;80.60;101337.43;1818388;79;20142;-59
2022/11/04 03:34:47;;;;;;;;;;;;;;;5.57;80.89;101340.11;1822424;79;20113;-58
2022/11/04 03:37:14;;;;;;;;;;;;;;;5.52;81.30;101336.66;1822690;78;20106;-57
2022/11/04 03:39:42;;;;;;;;;;;;;;;5.54;81.33;101347.10;1822617;79;20208;-58
2022/11/04 03:42:21;;;;;;;;;;;;;;;5.56;81.15;101342.73;1816465;79;20107;-57
2022/11/04 03:44:51;;;;;;;;;;;;;;;5.56;81.14;101338.81;1794596;80;20154;-60
2022/11/04 03:47:20;;;;;;;;;;;;;;;5.54;81.20;101342.73;1794664;80;20116;-60
2022/11/04 03:49:48;;;;;;;;;;;;;;;5.52;81.50;101333.20;1794635;80;20539;-57
2022/11/04 03:52:17;;;;;;;;;;;;;;;5.53;81.57;101344.05;1813126;79;20121;-58
2022/11/04 03:54:45;;;;;;;;;;;;;;;5.54;81.48;101345.80;1822496;79;20430;-55
2022/11/04 03:57:27;;;;;;;;;;;;;;;5.54;81.63;101347.10;1822317;79;20117;-56
2022/11/04 03:59:56;;;;;;;;;;;;;;;5.54;81.85;101352.33;1835941;77;20111;-55
2022/11/04 04:02:29;;;;;;;;;;;;;;;5.56;81.53;101350.12;1855877;76;20415;-56
2022/11/04 04:04:58;;;;;;;;;;;;;;;5.57;81.41;101350.97;1851158;77;20110;-57
2022/11/04 04:07:34;;;;;;;;;;;;;;;5.55;81.94;101347.52;1854651;77;20233;-56
2022/11/04 04:10:03;;;;;;;;;;;;;;;5.55;81.91;101351.43;1852384;77;20123;-58
2022/11/04 04:12:32;;;;;;;;;;;;;;;5.55;82.11;101352.73;1855928;76;20280;-58
2022/11/04 04:15:01;;;;;;;;;;;;;;;5.57;81.75;101352.28;1848724;76;20107;-60
2022/11/04 04:17:34;;;;;;;;;;;;;;;5.62;81.96;101351.81;1843546;76;20109;-59
2022/11/04 04:20:03;;;;;;;;;;;;;;;5.66;81.66;101360.48;1850551;76;20127;-59
2022/11/04 04:22:32;;;;;;;;;;;;;;;5.69;81.85;101358.72;1850948;77;20149;-59
2022/11/04 04:27:48;;;;;;;;;;;;;;;5.73;82.15;101361.72;1853003;77;20119;-59
2022/11/04 04:30:16;;;;;;;;;;;;;;;5.78;82.22;101359.08;1854698;77;20154;-61
2022/11/04 04:32:46;;;;;;;;;;;;;;;5.83;81.81;101365.55;1854912;76;20149;-59
2022/11/04 04:46:25;;;;;;;;;;;;;;;6.03;81.39;101375.86;1851292;77;20193;-56
2022/11/04 04:48:53;;;;;;;;;;;;;;;6.06;81.28;101376.70;1854757;77;20149;-56
2022/11/04 04:51:21;;;;;;;;;;;;;;;6.15;81.22;101374.44;1854616;77;20127;-57
2022/11/04 04:53:49;;;;;;;;;;;;;;;6.26;80.93;101375.63;1856280;76;20154;-53
2022/11/04 04:56:17;;;;;;;;;;;;;;;6.34;80.97;101375.98;1854747;77;20119;-52
2022/11/04 04:58:45;;;;;;;;;;;;;;;6.45;80.83;101379.75;1854688;77;20147;-51
2022/11/04 05:01:13;;;;;;;;;;;;;;;6.46;80.60;101381.95;1860195;76;20193;-52
2022/11/04 05:03:41;;;;;;;;;;;;;;;6.53;80.50;101381.85;1861431;76;20153;-53
2022/11/04 05:06:08;;;;;;;;;;;;;;;6.61;80.40;101384.82;1861594;77;20118;-53
2022/11/04 05:08:36;;;;;;;;;;;;;;;6.67;80.31;101384.28;1859021;77;20245;-56
2022/11/04 05:11:04;;;;;;;;;;;;;;;6.78;80.15;101378.91;1859632;77;20193;-55
2022/11/04 05:13:32;;;;;;;;;;;;;;;6.78;80.17;101385.45;1861430;76;20178;-56
2022/11/04 05:16:04;;;;;;;;;;;;;;;6.78;80.25;101381.53;1862022;76;20141;-57
2022/11/04 05:18:32;;;;;;;;;;;;;;;6.84;80.34;101391.95;1856927;76;20178;-57
2022/11/04 05:21:01;;;;;;;;;;;;;;;6.97;80.23;101391.30;1852766;76;20105;-58
2022/11/04 05:23:29;;;;;;;;;;;;;;;7.12;80.09;101395.49;1853694;76;20119;-59
2022/11/04 05:25:58;;;;;;;;;;;;;;;7.27;79.85;101403.58;1860159;76;20106;-59
2022/11/04 05:28:28;;;;;;;;;;;;;;;7.48;79.61;101398.44;1884381;75;20111;-59
2022/11/04 05:30:56;;;;;;;;;;;;;;;7.88;78.92;101403.03;1900598;75;20149;-60
2022/11/04 05:33:24;;;;;;;;;;;;;;;8.41;77.96;101406.44;1896285;75;20111;-59
2022/11/04 05:35:52;;;;;;;;;;;;;;;8.77;77.40;101410.55;1901063;75;20245;-59
2022/11/04 05:38:20;;;;;;;;;;;;;;;9.04;76.93;101403.85;1898934;75;20125;-59
2022/11/04 05:40:48;;;;;;;;;;;;;;;9.32;75.84;101408.48;1906540;75;20121;-59
2022/11/04 05:43:15;;;;;;;;;;;;;;;9.64;74.79;101411.64;1896171;75;20149;-59
2022/11/04 05:45:43;;;;;;;;;;;;;;;10.12;73.71;101410.44;1896172;75;20174;-59
2022/11/04 05:48:11;;;;;;;;;;;;;;;10.65;72.76;101405.96;1897345;75;20149;-59
2022/11/04 05:50:40;;;;;;;;;;;;;;;11.13;71.59;101415.09;1893000;75;20123;-59
2022/11/04 05:53:08;;;;;;;;;;;;;;;11.62;70.85;101410.03;1891091;75;20116;-58
2022/11/04 05:55:36;;;;;;;;;;;;;;;12.03;69.38;101403.88;1901440;75;20115;-59
2022/11/04 05:58:04;;;;;;;;;;;;;;;12.36;67.65;101404.00;1897106;75;20154;-59
2022/11/04 06:00:31;;;;;;;;;;;;;;;12.67;66.51;101410.81;1897701;75;20148;-57
2022/11/04 06:02:59;;;;;;;;;;;;;;;13.12;65.64;101411.30;1899509;75;20220;-58
2022/11/04 06:05:27;;;;;;;;;;;;;;;13.60;65.01;101405.93;1895569;75;20123;-58
2022/11/04 06:07:56;;;;;;;;;;;;;;;14.09;64.68;101417.08;1897738;75;20119;-58
2022/11/04 06:10:24;;;;;;;;;;;;;;;14.71;64.38;101415.75;1894914;75;20168;-60
2022/11/04 06:12:51;;;;;;;;;;;;;;;15.18;63.74;101420.61;1900603;75;20235;-56
2022/11/04 06:15:19;;;;;;;;;;;;;;;15.23;62.93;101422.59;1893711;75;20147;-57
2022/11/04 06:17:47;;;;;;;;;;;;;;;15.35;60.41;101418.03;1897819;75;20135;-58
2022/11/04 06:20:15;;;;;;;;;;;;;;;15.23;58.59;101422.59;1895785;75;20208;-59
2022/11/04 06:22:43;;;;;;;;;;;;;;;15.32;58.42;101428.78;1900281;75;20463;-56
2022/11/04 06:25:11;;;;;;;;;;;;;;;15.42;58.57;101418.12;1895795;75;20119;-54
2022/11/04 06:27:40;;;;;;;;;;;;;;;15.56;57.76;101428.05;1899240;75;20170;-58
2022/11/04 06:30:08;;;;;;;;;;;;;;;15.91;58.06;101428.61;1907632;75;20235;-56
2022/11/04 06:32:36;;;;;;;;;;;;;;;15.96;58.51;101421.27;1897495;75;20112;-55
2022/11/04 06:35:04;;;;;;;;;;;;;;;16.54;58.36;101424.90;1889075;76;20213;-60
2022/11/04 06:37:32;;;;;;;;;;;;;;;17.14;57.13;101418.14;1885418;76;20143;-58
2022/11/04 06:40:00;;;;;;;;;;;;;;;17.45;55.60;101421.74;1888466;76;20143;-61
2022/11/04 06:42:28;;;;;;;;;;;;;;;17.67;55.11;101417.34;1892872;76;20247;-59
2022/11/04 06:44:56;;;;;;;;;;;;;;;18.28;54.96;101411.56;1893083;76;20170;-59
2022/11/04 06:47:24;;;;;;;;;;;;;;;18.69;53.62;101404.99;1893416;76;20168;-55
2022/11/04 06:49:52;;;;;;;;;;;;;;;18.70;52.30;101409.39;1893435;76;20120;-58
2022/11/04 06:52:19;;;;;;;;;;;;;;;19.01;51.54;101406.13;1893419;76;20105;-57
2022/11/04 06:54:47;;;;;;;;;;;;;;;18.97;51.32;101408.61;1892695;76;20160;-58
2022/11/04 06:57:15;;;;;;;;;;;;;;;19.40;51.92;101411.65;1893375;76;20167;-57
2022/11/04 06:59:43;;;;;;;;;;;;;;;19.73;49.82;101401.06;1893501;76;20155;-54
2022/11/04 07:02:11;;;;;;;;;;;;;;;19.86;50.06;101404.61;1893446;76;20112;-59
2022/11/04 07:04:39;;;;;;;;;;;;;;;20.33;50.42;101400.98;1892773;76;20117;-59
2022/11/04 07:07:07;;;;;;;;;;;;;;;20.51;48.17;101396.14;1893525;76;20917;-58
2022/11/04 07:09:35;;;;;;;;;;;;;;;20.51;47.72;101394.80;1893335;76;20120;-58
2022/11/04 07:12:03;;;;;;;;;;;;;;;20.86;48.19;101384.77;1889374;76;20121;-58
2022/11/04 07:14:30;;;;;;;;;;;;;;;21.33;47.94;101393.84;1885440;76;20105;-57
2022/11/04 07:16:58;;;;;;;;;;;;;;;21.43;46.40;101389.98;1885616;76;20117;-51
2022/11/04 07:19:26;;;;;;;;;;;;;;;21.73;45.48;101393.57;1885527;76;20117;-53
2022/11/04 07:21:54;;;;;;;;;;;;;;;21.71;44.81;101394.17;1887410;76;20171;-53
2022/11/04 07:24:22;;;;;;;;;;;;;;;20.74;46.58;101394.06;1892913;76;20112;-53
2022/11/04 07:26:50;;;;;;;;;;;;;;;20.03;48.27;101397.65;1893562;76;20155;-58
2022/11/04 07:29:18;;;;;;;;;;;;;;;19.27;48.75;101391.56;1893583;75;20155;-58
2022/11/04 07:31:46;;;;;;;;;;;;;;;19.30;48.17;101395.38;1893419;76;20127;-49
2022/11/04 07:34:14;;;;;;;;;;;;;;;20.32;46.98;101401.45;1885499;76;20152;-56
2022/11/04 07:36:42;;;;;;;;;;;;;;;20.87;44.08;101395.38;1885413;76;20148;-57
2022/11/04 07:39:10;;;;;;;;;;;;;;;21.16;43.65;101396.43;1885514;76;20144;-51
2022/11/04 07:41:37;;;;;;;;;;;;;;;20.90;41.52;101387.14;1880996;75;20152;-55
2022/11/04 07:44:05;;;;;;;;;;;;;;;20.91;42.29;101392.00;1893546;76;20143;-59
2022/11/04 07:46:33;;;;;;;;;;;;;;;21.62;42.39;101403.75;1893542;76;20151;-58
2022/11/04 07:49:01;;;;;;;;;;;;;;;22.28;41.79;101401.41;1893491;76;20116;-59
2022/11/04 07:51:31;;;;;;;;;;;;;;;23.28;41.02;101392.58;1893172;76;20155;-58
2022/11/04 07:53:59;;;;;;;;;;;;;;;23.70;40.64;101398.05;1893531;76;20406;-58
2022/11/04 07:56:27;;;;;;;;;;;;;;;24.49;40.93;101390.81;1893464;76;20147;-58
2022/11/04 07:58:54;;;;;;;;;;;;;;;24.07;41.19;101404.36;1893534;76;20171;-58
2022/11/04 08:01:23;;;;;;;;;;;;;;;22.74;42.94;101407.16;1890489;76;20104;-58
2022/11/04 08:03:51;;;;;;;;;;;;;;;21.70;44.33;101404.52;1885372;76;20121;-58
2022/11/04 08:06:20;;;;;;;;;;;;;;;20.92;45.06;101397.24;1886781;76;20104;-58
2022/11/04 08:08:48;;;;;;;;;;;;;;;20.33;46.24;101401.84;1890334;76;20128;-58
2022/11/04 08:11:17;;;;;;;;;;;;;;;19.43;46.93;101394.09;1888897;76;20124;-58
2022/11/04 08:13:45;;;;;;;;;;;;;;;18.52;47.39;101396.72;1887131;74;20166;-58
2022/11/04 08:16:18;;;;;;;;;;;;;;;17.88;48.41;101406.80;1891043;74;20120;-58
2022/11/04 08:18:47;;;;;;;;;;;;;;;17.26;48.82;101401.47;1884620;74;20106;-58
2022/11/04 08:21:15;;;;;;;;;;;;;;;16.78;49.76;101403.22;1889182;74;20560;-58
2022/11/04 08:23:44;;;;;;;;;;;;;;;16.42;50.38;101408.27;1887514;74;20169;-58
2022/11/04 08:26:14;;;;;;;;;;;;;;;16.07;50.67;101395.02;1891984;74;20397;-58
2022/11/04 08:28:42;;;;;;;;;;;;;;;15.76;51.36;101402.36;1886318;74;20538;-59
2022/11/04 08:31:11;;;;;;;;;;;;;;;15.58;51.88;101408.08;1879968;74;20111;-58
2022/11/04 08:33:39;;;;;;;;;;;;;;;15.44;52.31;101407.44;1882970;74;20108;-59
2022/11/04 08:36:09;;;;;;;;;;;;;;;15.33;52.69;101406.63;1883979;74;20122;-58
2022/11/04 08:38:37;;;;;;;;;;;;;;;15.25;53.03;101404.80;1889105;74;20115;-59
2022/11/04 08:41:06;;;;;;;;;;;;;;;15.24;53.29;101410.58;1898055;74;20161;-57
2022/11/04 08:43:34;;;;;;;;;;;;;;;15.26;53.51;101402.55;1891243;74;20117;-57
2022/11/04 08:46:03;;;;;;;;;;;;;;;15.32;53.51;101397.42;1889429;74;20110;-57
2022/11/04 08:48:31;;;;;;;;;;;;;;;17.29;50.82;101398.64;1893566;74;20118;-57
2022/11/04 08:50:59;;;;;;;;;;;;;;;19.29;47.03;101382.52;1904336;74;20114;-58
2022/11/04 08:53:27;;;;;;;;;;;;;;;20.31;43.97;101383.70;1897166;74;20286;-58
2022/11/04 08:55:55;;;;;;;;;;;;;;;20.92;42.18;101374.49;1894976;74;20171;-57
2022/11/04 08:58:24;;;;;;;;;;;;;;;21.87;40.19;101359.84;1893484;74;20144;-57
2022/11/04 09:00:51;;;;;;;;;;;;;;;22.66;38.57;101366.64;1892307;74;20247;-56
2022/11/04 09:03:19;;;;;;;;;;;;;;;23.05;34.55;101352.83;1888144;74;20113;-53
2022/11/04 09:05:48;;;;;;;;;;;;;;;23.31;35.95;101362.75;1874644;75;20111;-53
2022/11/04 09:08:17;;;;;;;;;;;;;;;23.63;34.96;101357.38;1879737;74;20109;-54
2022/11/04 09:10:46;;;;;;;;;;;;;;;23.20;36.31;101369.51;1897479;74;20172;-50
2022/11/04 09:13:15;;;;;;;;;;;;;;;23.56;35.54;101371.47;1891110;76;20213;-52
2022/11/04 09:15:43;;;;;;;;;;;;;;;24.10;34.25;101362.37;1891954;76;20433;-58
2022/11/04 09:18:11;;;;;;;;;;;;;;;23.76;33.07;101354.49;1891014;76;20144;-58
2022/11/04 09:20:40;;;;;;;;;;;;;;;23.67;32.39;101339.15;1893707;76;20116;-49
2022/11/04 09:23:09;;;;;;;;;;;;;;;23.29;32.80;101352.63;1888727;76;20124;-50
2022/11/04 09:25:37;;;;;;;;;;;;;;;22.88;33.71;101343.44;1885528;76;20105;-48
2022/11/04 09:28:05;;;;;;;;;;;;;;;23.36;33.58;101353.82;1885445;76;20191;-56
2022/11/04 09:30:33;;;;;;;;;;;;;;;21.52;36.12;101349.98;1885584;76;20108;-51
2022/11/04 09:33:01;;;;;;;;;;;;;;;19.95;38.89;101367.91;1879732;76;20130;-50
2022/11/04 09:35:29;;;;;;;;;;;;;;;19.26;40.40;101353.34;1870671;77;20153;-49
2022/11/04 09:37:58;;;;;;;;;;;;;;;20.39;38.97;101357.27;1870715;77;20149;-61
2022/11/04 09:40:26;;;;;;;;;;;;;;;21.77;37.65;101357.52;1871664;76;20114;-61
2022/11/04 09:42:58;;;;;;;;;;;;;;;22.57;35.50;101342.38;1870832;77;20122;-61
2022/11/04 09:45:27;;;;;;;;;;;;;;;23.09;35.07;101343.06;1870593;76;20155;-57
2022/11/04 09:47:57;;;;;;;;;;;;;;;22.17;34.87;101339.68;1869609;77;20165;-57
2022/11/04 09:50:26;;;;;;;;;;;;;;;22.36;34.51;101329.22;1870733;77;20611;-55
2022/11/04 09:52:58;;;;;;;;;;;;;;;23.12;33.05;101333.38;1870809;77;20152;-55
2022/11/04 09:55:27;;;;;;;;;;;;;;;23.19;33.46;101331.55;1870377;77;20153;-61
2022/11/04 09:57:57;;;;;;;;;;;;;;;23.66;32.72;101338.77;1869987;77;20196;-60
2022/11/04 10:00:25;;;;;;;;;;;;;;;24.34;33.04;101347.27;1870774;77;20216;-60
2022/11/04 10:03:03;;;;;;;;;;;;;;;25.27;32.86;101333.18;1870674;77;20153;-60
2022/11/04 10:05:38;;;;;;;;;;;;;;;25.27;31.57;101334.53;1867973;77;20118;-60
2022/11/04 10:08:17;;;;;;;;;;;;;;;25.48;31.20;101340.27;1870766;77;20126;-60
2022/11/04 10:10:56;;;;;;;;;;;;;;;25.94;31.25;101327.88;1869909;77;20154;-60
2022/11/04 10:13:28;;;;;;;;;;;;;;;23.83;31.31;101331.98;1870497;77;20157;-60
2022/11/04 10:15:58;;;;;;;;;;;;;;;21.88;34.53;101340.11;1867726;77;20103;-59
2022/11/04 10:18:27;;;;;;;;;;;;;;;20.56;36.24;101340.50;1870790;77;20196;-54
2022/11/04 10:21:12;;;;;;;;;;;;;;;19.90;37.78;101350.02;1870740;77;20195;-58
2022/11/04 10:23:47;;;;;;;;;;;;;;;20.40;37.98;101346.95;1870665;77;20153;-59
2022/11/04 10:26:18;;;;;;;;;;;;;;;20.97;37.64;101343.36;1868018;77;20166;-59
2022/11/04 10:28:50;;;;;;;;;;;;;;;21.43;37.18;101337.25;1876298;75;20130;-59
2022/11/04 10:31:18;;;;;;;;;;;;;;;21.61;36.97;101335.04;1893441;74;20152;-57
2022/11/04 10:33:48;;;;;;;;;;;;;;;22.07;36.04;101314.55;1892820;74;20152;-61
2022/11/04 10:36:17;;;;;;;;;;;;;;;21.28;36.21;101338.41;1888214;74;20195;-58
2022/11/04 10:38:46;;;;;;;;;;;;;;;21.13;36.47;101333.72;1888562;74;20418;-58
2022/11/04 10:41:21;;;;;;;;;;;;;;;20.80;36.12;101337.91;1887389;74;20106;-59
2022/11/04 10:43:51;;;;;;;;;;;;;;;20.43;36.44;101332.00;1893189;74;20490;-58
2022/11/04 10:46:21;;;;;;;;;;;;;;;20.10;36.76;101327.22;1894268;74;20380;-49
2022/11/04 10:48:50;;;;;;;;;;;;;;;19.78;36.87;101329.47;1893128;74;20191;-57
2022/11/04 10:51:23;;;;;;;;;;;;;;;19.74;36.79;101332.83;1892764;74;20147;-56
2022/11/04 10:53:52;;;;;;;;;;;;;;;20.43;36.04;101318.63;1887601;74;20117;-57
2022/11/04 10:56:30;;;;;;;;;;;;;;;20.68;35.23;101326.77;1895536;74;20113;-58
2022/11/04 10:58:59;;;;;;;;;;;;;;;19.81;36.75;101323.92;1891259;74;20118;-57
2022/11/04 11:01:29;;;;;;;;;;;;;;;18.98;37.62;101333.41;1892954;74;20120;-57
2022/11/04 11:03:57;;;;;;;;;;;;;;;18.35;38.21;101328.05;1891827;74;20115;-59
2022/11/04 11:06:26;;;;;;;;;;;;;;;17.72;39.31;101338.03;1898225;74;20202;-57
2022/11/04 11:08:58;;;;;;;;;;;;;;;17.24;40.22;101343.48;1896240;74;20298;-57
2022/11/04 11:11:41;;;;;;;;;;;;;;;17.14;40.82;101332.52;1891455;74;20121;-57
2022/11/04 11:14:18;;;;;;;;;;;;;;;17.35;41.17;101338.87;1897884;74;20104;-59
2022/11/04 11:16:47;;;;;;;;;;;;;;;18.67;39.74;101327.37;1890718;74;20151;-57
2022/11/04 11:19:16;;;;;;;;;;;;;;;19.62;38.60;101333.16;1890280;74;20105;-57
2022/11/04 11:21:47;;;;;;;;;;;;;;;20.04;37.65;101314.30;1891369;74;20155;-58
2022/11/04 11:24:16;;;;;;;;;;;;;;;20.30;37.54;101332.51;1890939;74;20151;-59
2022/11/04 11:26:49;;;;;;;;;;;;;;;20.46;37.80;101334.11;1890597;74;20384;-59
2022/11/04 11:29:31;;;;;;;;;;;;;;;19.91;38.77;101337.01;1888740;74;20105;-58
2022/11/04 11:31:59;;;;;;;;;;;;;;;19.06;39.84;101334.63;1892306;74;20216;-58
2022/11/04 11:34:29;;;;;;;;;;;;;;;18.52;40.88;101334.05;1892276;74;20524;-61
2022/11/04 11:36:58;;;;;;;;;;;;;;;18.17;41.63;101335.37;1888731;74;20211;-59
2022/11/04 11:39:27;;;;;;;;;;;;;;;17.83;42.37;101335.59;1893316;74;20164;-60
2022/11/04 11:42:03;;;;;;;;;;;;;;;17.48;43.11;101339.86;1892410;74;20190;-59
2022/11/04 11:44:33;;;;;;;;;;;;;;;17.21;43.58;101333.03;1892623;74;20121;-61
2022/11/04 11:47:09;;;;;;;;;;;;;;;16.99;43.97;101340.05;1897016;74;20130;-51
2022/11/04 11:49:37;;;;;;;;;;;;;;;16.73;44.45;101338.34;1884167;74;20169;-51
2022/11/04 11:52:18;;;;;;;;;;;;;;;16.44;45.02;101331.95;1898809;74;20122;-55
2022/11/04 11:54:48;;;;;;;;;;;;;;;16.20;45.82;101342.95;1846614;76;20194;-51
2022/11/04 11:57:17;;;;;;;;;;;;;;;16.10;45.91;101346.17;1890746;74;20167;-53
2022/11/04 11:59:46;;;;;;;;;;;;;;;16.17;46.11;101337.79;1889121;74;20116;-52
2022/11/04 12:02:18;;;;;;;;;;;;;;;16.08;46.10;101335.63;1890785;74;20114;-51
2022/11/04 12:04:46;;;;;;;;;;;;;;;15.89;46.23;101345.51;1895445;74;20187;-51
2022/11/04 12:07:26;;;;;;;;;;;;;;;15.75;46.39;101351.51;1896551;74;20108;-53
2022/11/04 12:10:07;;;;;;;;;;;;;;;15.65;46.47;101355.08;1895805;74;20154;-51
2022/11/04 12:12:52;;;;;;;;;;;;;;;15.51;46.70;101360.21;1895450;74;20121;-52
2022/11/04 12:15:27;;;;;;;;;;;;;;;15.56;46.84;101362.17;1893078;74;20392;-53
2022/11/04 12:18:00;;;;;;;;;;;;;;;15.65;47.11;101367.02;1892363;74;20124;-52
2022/11/04 12:20:32;;;;;;;;;;;;;;;15.75;47.09;101371.42;1894767;74;20116;-58
2022/11/04 12:23:18;;;;;;;;;;;;;;;15.74;47.12;101366.59;1879643;74;20152;-55
2022/11/04 12:25:47;;;;;;;;;;;;;;;15.80;47.23;101362.28;1885290;75;20438;-58
2022/11/04 12:28:35;;;;;;;;;;;;;;;15.81;47.28;101366.67;1891783;74;20100;-59
2022/11/04 12:31:07;;;;;;;;;;;;;;;15.74;47.50;101375.87;1882383;74;20120;-60
2022/11/04 12:33:48;;;;;;;;;;;;;;;15.73;47.81;101383.44;1870204;76;20152;-59
2022/11/04 12:36:20;;;;;;;;;;;;;;;15.81;47.89;101376.44;1870476;76;20156;-57
2022/11/04 12:38:50;;;;;;;;;;;;;;;15.80;47.80;101385.33;1872483;76;20223;-57
2022/11/04 12:41:25;;;;;;;;;;;;;;;15.78;47.85;101384.08;1876352;76;20113;-57
2022/11/04 12:43:57;;;;;;;;;;;;;;;15.67;47.80;101386.38;1870015;76;20126;-57
2022/11/04 12:46:43;;;;;;;;;;;;;;;15.56;47.92;101389.56;1868906;76;20151;-57
2022/11/04 12:49:12;;;;;;;;;;;;;;;15.40;48.06;101394.80;1870747;76;20120;-58
2022/11/04 12:51:45;;;;;;;;;;;;;;;15.23;48.28;101392.08;1868368;76;20166;-58
2022/11/04 12:54:14;;;;;;;;;;;;;;;15.09;48.50;101397.17;1864523;76;20193;-59
2022/11/04 12:56:42;;;;;;;;;;;;;;;14.83;48.93;101390.02;1889938;76;20121;-59
2022/11/04 12:59:14;;;;;;;;;;;;;;;14.69;49.38;101393.75;1875797;76;20115;-57
2022/11/04 13:01:43;;;;;;;;;;;;;;;14.55;49.55;101390.36;1854639;76;20150;-59
2022/11/04 13:04:12;;;;;;;;;;;;;;;14.44;49.73;101394.81;1880617;76;20121;-54
2022/11/04 13:06:44;;;;;;;;;;;;;;;14.32;49.99;101393.58;1882030;76;20211;-54
2022/11/04 13:09:17;;;;;;;;;;;;;;;14.21;50.08;101391.41;1881966;76;20105;-54
2022/11/04 13:11:46;;;;;;;;;;;;;;;14.13;50.24;101399.27;1876221;76;20120;-53
2022/11/04 13:14:20;;;;;;;;;;;;;;;14.00;50.53;101402.48;1881891;75;20121;-51
2022/11/04 13:16:49;;;;;;;;;;;;;;;13.89;51.19;101400.75;1882041;76;20129;-57
2022/11/04 13:19:22;;;;;;;;;;;;;;;13.78;51.40;101405.17;1881092;76;20210;-55
2022/11/04 13:21:51;;;;;;;;;;;;;;;13.72;51.37;101406.73;1888361;76;20151;-55
2022/11/04 13:24:30;;;;;;;;;;;;;;;13.63;51.52;101407.11;1886064;76;20231;-49
2022/11/04 13:27:00;;;;;;;;;;;;;;;13.59;51.48;101403.73;1867614;76;20108;-57